Time;durP1;ratioP1;P1;durP2;ratioP2;P2;SDS_P1;SDS_P2;PMS_P1;PMS_P2;Temp;Humidity;BMP_temperature;BMP_pressure;BME280_temperature;BME280_humidity;BME280_pressure;Samples;Min_cycle;Max_cycle;Signal;HPM_P1;HPM_P2
2024/02/04 00:02:39;;;;;;;9.90;2.15;;;;;;;;;;4862958;29;20061;-86
2024/02/04 00:05:09;;;;;;;3.25;1.73;;;;;;;;;;4845094;29;20425;-90
2024/02/04 00:07:40;;;;;;;6.22;1.95;;;;;;;;;;4849287;29;20065;-86
2024/02/04 00:10:11;;;;;;;7.03;2.03;;;;;;;;;;4861014;29;20058;-86
2024/02/04 00:12:43;;;;;;;5.25;1.98;;;;;;;;;;4840162;29;20544;-87
2024/02/04 00:15:13;;;;;;;12.68;2.40;;;;;;;;;;4845403;29;20416;-86
2024/02/04 00:17:43;;;;;;;5.63;2.15;;;;;;;;;;4847944;29;20056;-86
2024/02/04 00:20:14;;;;;;;6.68;2.00;;;;;;;;;;4858440;29;20535;-85
2024/02/04 00:22:45;;;;;;;4.82;2.25;;;;;;;;;;4852947;29;20064;-87
2024/02/04 00:25:19;;;;;;;7.03;2.25;;;;;;;;;;4859839;29;20045;-88
2024/02/04 00:27:49;;;;;;;4.20;2.20;;;;;;;;;;4850668;29;20143;-87
2024/02/04 00:30:20;;;;;;;4.97;2.47;;;;;;;;;;4851019;29;20060;-86
2024/02/04 00:32:50;;;;;;;7.45;2.80;;;;;;;;;;4850756;29;20416;-86
2024/02/04 00:35:21;;;;;;;6.63;2.75;;;;;;;;;;4850195;29;20082;-87
2024/02/04 00:37:52;;;;;;;5.22;2.65;;;;;;;;;;4835859;29;20050;-86
2024/02/04 00:40:22;;;;;;;6.07;2.60;;;;;;;;;;4850676;29;20045;-88
2024/02/04 00:42:52;;;;;;;5.80;2.33;;;;;;;;;;4848268;29;20069;-86
2024/02/04 00:45:23;;;;;;;10.50;2.80;;;;;;;;;;4859940;29;20167;-86
2024/02/04 00:47:54;;;;;;;5.63;2.55;;;;;;;;;;4843235;29;20072;-86
2024/02/04 00:50:25;;;;;;;9.88;2.88;;;;;;;;;;4843278;29;20504;-86
2024/02/04 00:52:56;;;;;;;10.85;3.20;;;;;;;;;;4842650;29;20053;-86
2024/02/04 00:55:27;;;;;;;8.45;2.53;;;;;;;;;;4842857;29;20456;-87
2024/02/04 00:58:00;;;;;;;6.45;2.50;;;;;;;;;;4843411;29;20049;-87
2024/02/04 01:00:31;;;;;;;7.85;2.78;;;;;;;;;;4858762;29;20076;-87
2024/02/04 01:03:02;;;;;;;7.75;2.78;;;;;;;;;;4860798;29;20061;-88
2024/02/04 01:05:36;;;;;;;5.70;2.92;;;;;;;;;;4858131;29;20413;-86
2024/02/04 01:08:07;;;;;;;5.65;2.50;;;;;;;;;;4858672;29;20052;-85
2024/02/04 01:10:37;;;;;;;7.75;2.90;;;;;;;;;;4859636;29;20053;-88
2024/02/04 01:13:09;;;;;;;6.80;2.70;;;;;;;;;;4858491;29;20064;-88
2024/02/04 01:15:43;;;;;;;7.93;2.70;;;;;;;;;;4857900;29;20084;-86
2024/02/04 01:18:13;;;;;;;4.40;2.53;;;;;;;;;;4844221;29;20054;-87
2024/02/04 01:20:43;;;;;;;16.40;2.90;;;;;;;;;;4858376;29;20062;-87
2024/02/04 01:23:17;;;;;;;9.02;2.83;;;;;;;;;;4859516;29;20058;-86
2024/02/04 01:25:48;;;;;;;6.40;2.67;;;;;;;;;;4858540;29;20054;-87
2024/02/04 01:28:19;;;;;;;8.30;2.85;;;;;;;;;;4853618;29;20508;-86
2024/02/04 01:30:51;;;;;;;4.78;2.60;;;;;;;;;;4845732;29;20049;-87
2024/02/04 01:33:23;;;;;;;6.95;2.58;;;;;;;;;;4850967;29;20409;-86
2024/02/04 01:35:55;;;;;;;5.75;2.92;;;;;;;;;;4846999;29;20057;-87
2024/02/04 01:38:25;;;;;;;5.03;2.80;;;;;;;;;;4853210;29;20503;-87
2024/02/04 01:40:57;;;;;;;6.30;2.72;;;;;;;;;;4864175;29;20398;-86
2024/02/04 01:43:29;;;;;;;7.35;2.75;;;;;;;;;;4847679;29;20046;-87
2024/02/04 01:46:00;;;;;;;7.47;2.70;;;;;;;;;;4847631;29;20049;-86
2024/02/04 01:48:34;;;;;;;5.53;2.72;;;;;;;;;;4847790;29;20505;-87
2024/02/04 01:51:05;;;;;;;6.00;2.80;;;;;;;;;;4852061;29;20064;-84
2024/02/04 01:53:37;;;;;;;6.25;2.78;;;;;;;;;;4873488;29;20057;-85
2024/02/04 01:56:07;;;;;;;6.93;2.85;;;;;;;;;;4867607;29;20050;-84
2024/02/04 01:58:39;;;;;;;9.20;2.97;;;;;;;;;;4857786;29;20069;-85
2024/02/04 02:01:10;;;;;;;6.57;2.67;;;;;;;;;;4858284;29;20068;-85
2024/02/04 02:03:42;;;;;;;5.22;2.95;;;;;;;;;;4849361;29;20413;-86
2024/02/04 02:06:13;;;;;;;6.22;2.67;;;;;;;;;;4846868;29;20053;-87
2024/02/04 02:08:46;;;;;;;5.93;2.47;;;;;;;;;;4851993;29;20061;-87
2024/02/04 02:11:33;;;;;;;5.32;2.40;;;;;;;;;;4857325;29;20050;-87
2024/02/04 02:14:07;;;;;;;6.78;2.85;;;;;;;;;;4854355;29;20064;-89
2024/02/04 02:16:38;;;;;;;7.15;3.13;;;;;;;;;;4842175;29;20061;-87
2024/02/04 02:19:47;;;;;;;6.60;2.95;;;;;;;;;;4844354;29;20501;-88
2024/02/04 02:22:42;;;;;;;6.03;2.88;;;;;;;;;;4846857;29;20489;-85
2024/02/04 02:25:15;;;;;;;5.30;2.67;;;;;;;;;;4845380;29;20042;-86
2024/02/04 02:28:45;;;;;;;5.90;3.05;;;;;;;;;;4846144;29;20065;-86
2024/02/04 02:34:41;;;;;;;5.50;2.83;;;;;;;;;;4845668;29;20050;-88
2024/02/04 02:37:33;;;;;;;10.25;2.90;;;;;;;;;;4843102;29;20064;-88
2024/02/04 02:40:45;;;;;;;9.00;3.00;;;;;;;;;;4844397;29;20088;-89
2024/02/04 02:43:17;;;;;;;5.57;2.72;;;;;;;;;;4827738;29;20493;-87
2024/02/04 02:45:47;;;;;;;6.32;3.00;;;;;;;;;;4845058;29;20508;-88
2024/02/04 02:48:18;;;;;;;4.45;2.53;;;;;;;;;;4843065;29;20073;-87
2024/02/04 02:50:48;;;;;;;7.38;3.20;;;;;;;;;;4843533;29;20084;-87
2024/02/04 02:53:20;;;;;;;7.07;2.90;;;;;;;;;;4842393;29;20084;-85
2024/02/04 02:55:51;;;;;;;8.48;3.35;;;;;;;;;;4827932;29;20058;-87
2024/02/04 02:58:22;;;;;;;6.90;3.03;;;;;;;;;;4843895;29;20162;-89
2024/02/04 03:00:52;;;;;;;7.03;2.72;;;;;;;;;;4843360;29;20050;-88
2024/02/04 03:03:22;;;;;;;9.38;3.05;;;;;;;;;;4844527;29;20052;-88
2024/02/04 03:05:54;;;;;;;10.35;3.15;;;;;;;;;;4857484;29;20050;-86
2024/02/04 03:08:25;;;;;;;7.32;3.10;;;;;;;;;;4858703;29;20061;-86
2024/02/04 03:10:54;;;;;;;6.53;2.78;;;;;;;;;;4858020;29;20058;-86
2024/02/04 03:13:24;;;;;;;5.40;2.70;;;;;;;;;;4858436;29;20152;-85
2024/02/04 03:15:55;;;;;;;8.35;2.80;;;;;;;;;;4857487;29;20058;-85
2024/02/04 03:18:26;;;;;;;7.60;2.88;;;;;;;;;;4858172;29;20514;-87
2024/02/04 03:21:00;;;;;;;11.10;3.30;;;;;;;;;;4843064;29;20054;-86
2024/02/04 03:23:31;;;;;;;8.20;3.17;;;;;;;;;;4857546;29;20065;-86
2024/02/04 03:26:01;;;;;;;9.98;3.22;;;;;;;;;;4858257;29;20049;-87
2024/02/04 03:28:32;;;;;;;8.77;3.17;;;;;;;;;;4858444;29;20054;-87
2024/02/04 03:31:03;;;;;;;9.85;3.22;;;;;;;;;;4858119;29;20497;-85
2024/02/04 03:33:34;;;;;;;8.32;3.53;;;;;;;;;;4857384;29;20159;-87
2024/02/04 03:36:05;;;;;;;7.10;3.22;;;;;;;;;;4857696;29;20054;-87
2024/02/04 03:38:36;;;;;;;6.05;2.88;;;;;;;;;;4857398;29;20053;-86
2024/02/04 03:41:05;;;;;;;8.52;3.28;;;;;;;;;;4857263;29;20394;-86
2024/02/04 03:43:37;;;;;;;7.15;2.88;;;;;;;;;;4857216;29;20062;-87
2024/02/04 03:46:08;;;;;;;8.57;2.72;;;;;;;;;;4857005;29;20414;-87
2024/02/04 03:48:39;;;;;;;7.43;3.22;;;;;;;;;;4857589;29;20065;-86
2024/02/04 03:51:19;;;;;;;7.82;3.03;;;;;;;;;;4857327;29;20054;-87
2024/02/04 03:53:52;;;;;;;7.70;2.90;;;;;;;;;;4857279;29;20524;-86
2024/02/04 03:56:26;;;;;;;6.78;3.08;;;;;;;;;;4870492;29;20045;-85
2024/02/04 03:58:56;;;;;;;11.80;3.35;;;;;;;;;;4864398;29;20053;-86
2024/02/04 04:01:27;;;;;;;5.60;3.00;;;;;;;;;;4879105;29;20052;-86
2024/02/04 04:03:58;;;;;;;9.45;2.95;;;;;;;;;;4878981;29;20045;-86
2024/02/04 04:06:28;;;;;;;9.20;2.60;;;;;;;;;;4863660;29;20053;-87
2024/02/04 04:08:59;;;;;;;5.75;3.10;;;;;;;;;;4863252;29;20064;-87
2024/02/04 04:11:29;;;;;;;10.20;3.00;;;;;;;;;;4863402;29;20072;-88
2024/02/04 04:13:59;;;;;;;10.75;3.00;;;;;;;;;;4863706;29;20053;-88
2024/02/04 04:16:31;;;;;;;5.20;2.95;;;;;;;;;;4864253;29;20401;-88
2024/02/04 04:19:02;;;;;;;9.85;3.03;;;;;;;;;;4864195;29;20365;-87
2024/02/04 04:21:33;;;;;;;;;;;;;;;;;;4863283;29;20075;-88
2024/02/04 04:24:04;;;;;;;5.15;2.97;;;;;;;;;;4863607;29;19931;-86
2024/02/04 04:26:35;;;;;;;9.35;2.50;;;;;;;;;;4863986;29;20512;-86
2024/02/04 04:29:05;;;;;;;7.45;2.90;;;;;;;;;;4863004;29;20072;-87
2024/02/04 04:31:35;;;;;;;7.32;2.85;;;;;;;;;;4863423;29;20499;-88
2024/02/04 04:34:06;;;;;;;5.22;2.53;;;;;;;;;;4863869;29;20056;-86
2024/02/04 04:36:37;;;;;;;6.22;3.25;;;;;;;;;;4879959;29;20049;-85
2024/02/04 04:39:08;;;;;;;6.28;3.05;;;;;;;;;;4862707;29;20061;-86
2024/02/04 04:41:40;;;;;;;7.25;3.38;;;;;;;;;;4879796;29;20052;-86
2024/02/04 04:44:12;;;;;;;8.23;3.25;;;;;;;;;;4863662;29;20060;-86
2024/02/04 04:46:42;;;;;;;8.65;3.25;;;;;;;;;;4847287;29;20064;-87
2024/02/04 04:49:13;;;;;;;16.45;2.80;;;;;;;;;;4848144;29;20056;-86
2024/02/04 04:51:47;;;;;;;12.43;3.17;;;;;;;;;;4862879;29;20052;-87
2024/02/04 04:54:17;;;;;;;7.30;3.35;;;;;;;;;;4848190;29;20049;-87
2024/02/04 04:56:48;;;;;;;7.60;3.33;;;;;;;;;;4847861;29;20064;-87
2024/02/04 04:59:20;;;;;;;10.45;3.33;;;;;;;;;;4862609;29;20053;-87
2024/02/04 05:01:51;;;;;;;8.57;3.08;;;;;;;;;;4847215;29;20060;-86
2024/02/04 05:04:25;;;;;;;9.10;3.25;;;;;;;;;;4850764;29;20064;-87
2024/02/04 05:06:56;;;;;;;6.85;3.20;;;;;;;;;;4878137;29;20056;-86
2024/02/04 05:09:27;;;;;;;9.85;3.13;;;;;;;;;;4862668;29;20064;-88
2024/02/04 05:12:00;;;;;;;10.38;2.85;;;;;;;;;;4879406;29;20056;-87
2024/02/04 05:14:31;;;;;;;5.95;3.00;;;;;;;;;;4883821;29;20492;-87
2024/02/04 05:17:01;;;;;;;13.85;3.05;;;;;;;;;;4882749;29;20071;-87
2024/02/04 05:19:32;;;;;;;6.05;3.15;;;;;;;;;;4867192;29;20056;-87
2024/02/04 05:22:03;;;;;;;7.75;2.92;;;;;;;;;;4883402;29;20044;-88
2024/02/04 05:24:35;;;;;;;8.48;3.00;;;;;;;;;;4882255;29;20056;-86
2024/02/04 05:27:05;;;;;;;8.90;3.85;;;;;;;;;;4881858;29;20060;-86
2024/02/04 05:29:36;;;;;;;10.40;3.13;;;;;;;;;;4882223;29;20053;-86
2024/02/04 05:32:07;;;;;;;11.95;3.17;;;;;;;;;;4866304;29;20057;-86
2024/02/04 05:34:38;;;;;;;11.98;3.03;;;;;;;;;;4880990;29;20069;-87
2024/02/04 05:37:09;;;;;;;9.32;3.38;;;;;;;;;;4883127;29;20045;-88
2024/02/04 05:39:40;;;;;;;10.68;3.22;;;;;;;;;;4881176;29;20382;-85
2024/02/04 05:42:10;;;;;;;13.15;3.38;;;;;;;;;;4881608;29;20480;-86
2024/02/04 05:44:41;;;;;;;8.63;3.30;;;;;;;;;;4866171;29;20389;-86
2024/02/04 05:47:12;;;;;;;7.72;3.08;;;;;;;;;;4881755;29;20060;-87
2024/02/04 05:49:43;;;;;;;9.25;2.97;;;;;;;;;;4864991;29;20065;-87
2024/02/04 05:52:15;;;;;;;9.82;3.40;;;;;;;;;;4864550;29;20041;-87
2024/02/04 05:54:45;;;;;;;8.15;3.10;;;;;;;;;;4863112;29;20080;-87
2024/02/04 05:57:15;;;;;;;7.60;3.30;;;;;;;;;;4861498;29;20050;-87
2024/02/04 05:59:47;;;;;;;7.65;2.92;;;;;;;;;;4861969;29;20397;-87
2024/02/04 06:02:18;;;;;;;10.30;3.00;;;;;;;;;;4860615;29;20049;-87
2024/02/04 06:04:49;;;;;;;20.95;3.95;;;;;;;;;;4861677;29;20060;-88
2024/02/04 06:07:20;;;;;;;13.32;3.40;;;;;;;;;;4847033;29;20049;-87
2024/02/04 06:09:51;;;;;;;7.07;3.30;;;;;;;;;;4861864;29;20493;-87
2024/02/04 06:12:22;;;;;;;13.68;3.60;;;;;;;;;;4859874;29;20061;-87
2024/02/04 06:14:53;;;;;;;7.00;2.72;;;;;;;;;;4862795;29;20124;-87
2024/02/04 06:17:24;;;;;;;11.55;3.15;;;;;;;;;;4846450;29;20065;-87
2024/02/04 06:19:54;;;;;;;9.90;3.30;;;;;;;;;;4861432;29;20496;-86
2024/02/04 06:22:24;;;;;;;10.93;3.90;;;;;;;;;;4846200;29;20049;-87
2024/02/04 06:24:57;;;;;;;5.53;3.33;;;;;;;;;;4862434;29;20056;-87
2024/02/04 06:27:27;;;;;;;9.68;3.58;;;;;;;;;;4861493;29;20056;-87
2024/02/04 06:29:58;;;;;;;8.70;3.17;;;;;;;;;;4858680;29;20045;-87
2024/02/04 06:32:29;;;;;;;7.07;3.03;;;;;;;;;;4861754;29;20398;-86
2024/02/04 06:35:00;;;;;;;7.97;3.20;;;;;;;;;;4861910;29;20064;-87
2024/02/04 06:37:31;;;;;;;6.43;3.30;;;;;;;;;;4847206;29;20053;-87
2024/02/04 06:40:02;;;;;;;13.18;3.05;;;;;;;;;;4863328;29;20485;-87
2024/02/04 06:42:33;;;;;;;5.97;3.55;;;;;;;;;;4861849;29;20080;-87
2024/02/04 06:45:04;;;;;;;5.95;3.45;;;;;;;;;;4861917;29;20054;-87
2024/02/04 06:47:34;;;;;;;10.65;3.10;;;;;;;;;;4847262;29;20057;-87
2024/02/04 06:50:05;;;;;;;7.45;3.22;;;;;;;;;;4862176;29;20053;-86
2024/02/04 06:52:37;;;;;;;9.50;3.20;;;;;;;;;;4862501;29;20045;-87
2024/02/04 06:55:07;;;;;;;9.00;3.05;;;;;;;;;;4861600;29;20136;-86
2024/02/04 06:57:40;;;;;;;6.95;3.17;;;;;;;;;;4863140;29;20060;-86
2024/02/04 07:00:11;;;;;;;12.30;3.30;;;;;;;;;;4863102;29;20481;-87
2024/02/04 07:02:42;;;;;;;7.45;3.30;;;;;;;;;;4863172;29;20045;-85
2024/02/04 07:05:15;;;;;;;10.15;3.25;;;;;;;;;;4862727;29;20060;-86
2024/02/04 07:07:45;;;;;;;8.45;3.05;;;;;;;;;;4862872;29;20056;-87
2024/02/04 07:10:17;;;;;;;5.88;2.97;;;;;;;;;;4846715;29;20068;-86
2024/02/04 07:12:48;;;;;;;8.07;3.05;;;;;;;;;;4847159;29;20049;-86
2024/02/04 07:15:18;;;;;;;9.05;3.50;;;;;;;;;;4862681;29;20057;-86
2024/02/04 07:17:48;;;;;;;7.90;2.80;;;;;;;;;;4845389;29;20053;-86
2024/02/04 07:20:19;;;;;;;9.30;3.30;;;;;;;;;;4845436;29;20061;-86
2024/02/04 07:22:49;;;;;;;11.18;3.20;;;;;;;;;;4846319;29;20057;-86
2024/02/04 07:25:20;;;;;;;6.30;3.10;;;;;;;;;;4845676;29;20057;-86
2024/02/04 07:27:51;;;;;;;13.88;3.58;;;;;;;;;;4845395;29;20519;-86
2024/02/04 07:30:24;;;;;;;7.65;2.90;;;;;;;;;;4846166;29;20065;-87
2024/02/04 07:32:54;;;;;;;7.65;2.92;;;;;;;;;;4845440;29;20060;-87
2024/02/04 07:35:24;;;;;;;11.40;4.55;;;;;;;;;;4844484;29;20058;-87
2024/02/04 07:37:55;;;;;;;6.38;2.92;;;;;;;;;;4861822;29;20049;-86
2024/02/04 07:40:27;;;;;;;11.65;3.42;;;;;;;;;;4846207;29;20046;-86
2024/02/04 07:42:57;;;;;;;6.32;3.00;;;;;;;;;;4846411;29;20057;-87
2024/02/04 07:45:27;;;;;;;9.07;3.35;;;;;;;;;;4845628;29;20068;-87
2024/02/04 07:47:57;;;;;;;6.20;2.75;;;;;;;;;;4862757;29;20056;-87
2024/02/04 07:50:27;;;;;;;12.63;3.05;;;;;;;;;;4844669;29;20057;-87
2024/02/04 07:52:59;;;;;;;10.20;3.97;;;;;;;;;;4846377;29;20053;-86
2024/02/04 07:55:30;;;;;;;6.97;2.90;;;;;;;;;;4830656;29;20489;-87
2024/02/04 07:58:01;;;;;;;;;;;;;;;;;;4846388;29;20056;-87
2024/02/04 08:00:32;;;;;;;8.25;3.15;;;;;;;;;;4845437;29;20276;-86
2024/02/04 08:03:04;;;;;;;9.45;3.20;;;;;;;;;;4846460;29;20049;-86
2024/02/04 08:05:37;;;;;;;6.68;3.65;;;;;;;;;;4857653;29;20066;-87
2024/02/04 08:08:07;;;;;;;16.13;3.63;;;;;;;;;;4862258;29;20449;-85
2024/02/04 08:10:39;;;;;;;8.82;3.38;;;;;;;;;;4860573;29;20058;-86
2024/02/04 08:13:10;;;;;;;9.60;3.65;;;;;;;;;;4861018;29;20054;-86
2024/02/04 08:15:40;;;;;;;12.05;3.17;;;;;;;;;;4860541;29;20058;-85
2024/02/04 08:18:12;;;;;;;8.88;3.20;;;;;;;;;;4845404;29;20061;-86
2024/02/04 08:20:42;;;;;;;6.80;3.08;;;;;;;;;;4860028;29;20049;-88
2024/02/04 08:23:14;;;;;;;12.07;3.70;;;;;;;;;;4860045;29;20053;-85
2024/02/04 08:25:44;;;;;;;9.60;3.38;;;;;;;;;;4844628;29;20053;-85
2024/02/04 08:28:16;;;;;;;6.82;2.97;;;;;;;;;;4860232;29;20046;-85
2024/02/04 08:30:46;;;;;;;9.55;4.20;;;;;;;;;;4861323;29;20045;-85
2024/02/04 08:33:17;;;;;;;12.70;4.03;;;;;;;;;;4859981;29;20416;-86
2024/02/04 08:35:49;;;;;;;7.18;2.83;;;;;;;;;;4860847;29;20061;-86
2024/02/04 08:38:21;;;;;;;4.80;2.92;;;;;;;;;;4860926;29;20049;-87
2024/02/04 08:40:51;;;;;;;6.47;3.10;;;;;;;;;;4860548;29;20053;-86
2024/02/04 08:43:21;;;;;;;12.82;3.90;;;;;;;;;;4859571;29;20520;-86
2024/02/04 08:45:51;;;;;;;10.02;3.88;;;;;;;;;;4859983;29;20057;-86
2024/02/04 08:48:22;;;;;;;7.30;3.08;;;;;;;;;;4861453;29;20053;-87
2024/02/04 08:50:54;;;;;;;9.98;3.35;;;;;;;;;;4861618;29;20064;-87
2024/02/04 08:53:25;;;;;;;8.02;3.45;;;;;;;;;;4860428;29;20183;-86
2024/02/04 08:55:55;;;;;;;7.78;3.67;;;;;;;;;;4861513;29;20049;-87
2024/02/04 08:58:24;;;;;;;6.00;3.20;;;;;;;;;;4864776;29;20065;-84
2024/02/04 09:00:55;;;;;;;8.10;3.08;;;;;;;;;;4866228;29;20061;-85
2024/02/04 09:03:25;;;;;;;7.93;2.75;;;;;;;;;;4866129;29;20049;-84
2024/02/04 09:06:00;;;;;;;5.93;2.90;;;;;;;;;;4870732;29;20061;-84
2024/02/04 09:08:31;;;;;;;7.88;2.97;;;;;;;;;;4862124;29;20050;-87
2024/02/04 09:11:01;;;;;;;8.68;3.00;;;;;;;;;;4860056;29;20060;-87
2024/02/04 09:13:33;;;;;;;7.47;2.78;;;;;;;;;;4861405;29;20504;-87
2024/02/04 09:16:04;;;;;;;8.15;3.00;;;;;;;;;;4861206;29;20054;-87
2024/02/04 09:18:36;;;;;;;6.97;3.00;;;;;;;;;;4860183;29;20061;-87
2024/02/04 09:21:07;;;;;;;7.55;3.35;;;;;;;;;;4861611;29;20053;-87
2024/02/04 09:23:39;;;;;;;8.07;3.53;;;;;;;;;;4859920;29;20050;-86
2024/02/04 09:26:09;;;;;;;11.88;3.55;;;;;;;;;;4861586;29;20050;-86
2024/02/04 09:28:41;;;;;;;6.32;2.90;;;;;;;;;;4859646;29;20050;-85
2024/02/04 09:31:12;;;;;;;8.65;2.95;;;;;;;;;;4858852;29;20054;-87
2024/02/04 09:33:43;;;;;;;6.50;2.72;;;;;;;;;;4859365;29;20057;-87
2024/02/04 09:36:14;;;;;;;5.82;3.10;;;;;;;;;;4859249;29;20053;-86
2024/02/04 09:38:45;;;;;;;7.75;3.22;;;;;;;;;;4859427;29;20057;-86
2024/02/04 09:41:16;;;;;;;7.50;2.90;;;;;;;;;;4861062;29;20053;-87
2024/02/04 09:43:47;;;;;;;13.32;3.05;;;;;;;;;;4860828;29;20049;-86
2024/02/04 09:46:18;;;;;;;6.95;2.65;;;;;;;;;;4858734;29;20520;-85
2024/02/04 09:48:52;;;;;;;11.95;2.83;;;;;;;;;;4842095;29;20054;-86
2024/02/04 09:51:22;;;;;;;6.00;3.00;;;;;;;;;;4840794;29;20054;-86
2024/02/04 09:53:54;;;;;;;7.57;2.70;;;;;;;;;;4856294;29;20388;-85
2024/02/04 09:56:26;;;;;;;5.65;2.47;;;;;;;;;;4871646;29;20050;-87
2024/02/04 09:58:58;;;;;;;5.97;2.40;;;;;;;;;;4843460;29;20054;-87
2024/02/04 10:01:29;;;;;;;5.25;2.30;;;;;;;;;;4859832;29;20056;-86
2024/02/04 10:04:01;;;;;;;7.90;2.45;;;;;;;;;;4862242;29;20065;-87
2024/02/04 10:06:34;;;;;;;5.97;2.47;;;;;;;;;;4863800;29;20048;-86
2024/02/04 10:09:06;;;;;;;4.57;2.42;;;;;;;;;;4848214;29;20424;-86
2024/02/04 10:11:37;;;;;;;6.78;2.20;;;;;;;;;;4862202;29;20497;-86
2024/02/04 10:14:09;;;;;;;6.63;2.08;;;;;;;;;;4862242;29;20057;-87
2024/02/04 10:16:41;;;;;;;7.05;2.08;;;;;;;;;;4861238;29;20050;-88
2024/02/04 10:19:14;;;;;;;10.85;2.05;;;;;;;;;;4861063;29;20049;-88
2024/02/04 10:21:45;;;;;;;9.73;2.35;;;;;;;;;;4861216;29;20054;-86
2024/02/04 10:24:16;;;;;;;5.15;2.10;;;;;;;;;;4862810;29;20052;-87
2024/02/04 10:26:48;;;;;;;6.20;2.00;;;;;;;;;;4862861;29;20053;-88
2024/02/04 10:29:19;;;;;;;7.93;2.22;;;;;;;;;;4874131;29;20049;-87
2024/02/04 10:31:49;;;;;;;6.45;2.30;;;;;;;;;;4881810;29;20053;-88
2024/02/04 10:34:21;;;;;;;5.80;2.20;;;;;;;;;;4879649;29;20053;-86
2024/02/04 10:36:53;;;;;;;7.47;2.13;;;;;;;;;;4878739;29;20049;-87
2024/02/04 10:39:23;;;;;;;9.75;2.05;;;;;;;;;;4860999;29;20058;-87
2024/02/04 10:41:56;;;;;;;5.40;1.92;;;;;;;;;;4861395;29;20049;-86
2024/02/04 10:44:29;;;;;;;5.13;1.77;;;;;;;;;;4860072;29;20420;-86
2024/02/04 10:47:17;;;;;;;7.95;2.25;;;;;;;;;;4845854;29;20057;-87
2024/02/04 10:49:54;;;;;;;8.55;2.55;;;;;;;;;;4846844;29;20064;-86
2024/02/04 10:52:28;;;;;;;4.72;1.83;;;;;;;;;;4845140;29;20516;-86
2024/02/04 10:55:00;;;;;;;5.93;2.10;;;;;;;;;;4860425;29;20060;-86
2024/02/04 10:57:32;;;;;;;3.42;1.83;;;;;;;;;;4860544;29;20524;-87
2024/02/04 11:00:08;;;;;;;5.05;2.13;;;;;;;;;;4860725;29;20428;-86
2024/02/04 11:02:39;;;;;;;7.45;1.95;;;;;;;;;;4845007;29;20073;-86
2024/02/04 11:05:14;;;;;;;5.03;1.95;;;;;;;;;;4861249;29;20065;-87
2024/02/04 11:07:45;;;;;;;6.22;1.58;;;;;;;;;;4852790;29;20053;-87
2024/02/04 11:10:16;;;;;;;4.70;1.83;;;;;;;;;;4862378;29;20064;-85
2024/02/04 11:12:47;;;;;;;5.68;1.67;;;;;;;;;;4863871;29;20064;-85
2024/02/04 11:15:20;;;;;;;7.03;1.50;;;;;;;;;;4863962;29;20053;-87
2024/02/04 11:18:10;;;;;;;5.38;2.00;;;;;;;;;;4862855;29;20408;-87
2024/02/04 11:21:28;;;;;;;6.28;1.58;;;;;;;;;;4864453;29;20045;-85
2024/02/04 11:24:19;;;;;;;5.40;1.52;;;;;;;;;;4863841;29;20052;-88
2024/02/04 11:26:49;;;;;;;;;;;;;;;;;;4864023;29;20064;-86
2024/02/04 11:29:19;;;;;;;4.15;1.85;;;;;;;;;;4863843;29;19930;-85
2024/02/04 11:31:51;;;;;;;4.85;1.98;;;;;;;;;;4848175;29;20061;-87
2024/02/04 11:34:26;;;;;;;6.85;1.70;;;;;;;;;;4879353;29;20056;-87
2024/02/04 11:36:58;;;;;;;5.28;2.40;;;;;;;;;;4880341;29;20049;-88
2024/02/04 11:39:29;;;;;;;4.93;2.17;;;;;;;;;;4863914;29;20053;-85
2024/02/04 11:42:01;;;;;;;8.98;2.25;;;;;;;;;;4863415;29;20049;-85
2024/02/04 11:44:31;;;;;;;5.22;1.58;;;;;;;;;;4863415;29;20045;-85
2024/02/04 11:47:02;;;;;;;5.90;1.90;;;;;;;;;;4879733;29;20044;-85
2024/02/04 11:49:32;;;;;;;3.22;1.58;;;;;;;;;;4861763;29;20500;-87
2024/02/04 11:52:04;;;;;;;3.92;1.92;;;;;;;;;;4862713;29;20057;-85
2024/02/04 11:54:35;;;;;;;3.85;1.90;;;;;;;;;;4878993;29;20040;-86
2024/02/04 11:57:06;;;;;;;;;;;;;;;;;;4862957;29;20057;-87
2024/02/04 11:59:37;;;;;;;5.72;1.70;;;;;;;;;;4862501;29;19940;-85
2024/02/04 12:02:09;;;;;;;2.08;1.17;;;;;;;;;;4863124;29;20053;-86
2024/02/04 12:04:39;;;;;;;5.50;1.42;;;;;;;;;;4849427;29;20061;-89
2024/02/04 12:07:11;;;;;;;5.13;1.40;;;;;;;;;;4857457;29;20058;-86
2024/02/04 12:09:42;;;;;;;3.75;1.13;;;;;;;;;;4861525;29;20041;-87
2024/02/04 12:12:13;;;;;;;;;;;;;;;;;;4860250;29;20056;-87
2024/02/04 12:14:45;;;;;;;1.58;1.00;;;;;;;;;;4859669;29;19924;-84
2024/02/04 12:17:16;;;;;;;3.75;0.90;;;;;;;;;;4861552;29;20477;-84
2024/02/04 12:19:47;;;;;;;2.92;1.02;;;;;;;;;;4860796;29;20056;-85
2024/02/04 12:22:18;;;;;;;3.08;0.93;;;;;;;;;;4859597;29;20053;-87
2024/02/04 12:24:49;;;;;;;4.60;1.63;;;;;;;;;;4858756;29;20053;-86
2024/02/04 12:27:20;;;;;;;1.30;0.90;;;;;;;;;;4860347;29;20400;-86
2024/02/04 12:29:53;;;;;;;2.22;1.10;;;;;;;;;;4861487;29;20057;-85
2024/02/04 12:32:23;;;;;;;2.65;0.90;;;;;;;;;;4860079;29;20053;-86
2024/02/04 12:34:56;;;;;;;1.13;0.73;;;;;;;;;;4860141;29;20058;-85
2024/02/04 12:37:28;;;;;;;1.33;0.82;;;;;;;;;;4860647;29;20180;-87
2024/02/04 12:39:59;;;;;;;3.22;0.90;;;;;;;;;;4861258;29;20513;-85
2024/02/04 12:42:30;;;;;;;4.30;1.02;;;;;;;;;;4859934;29;20449;-86
2024/02/04 12:45:01;;;;;;;1.40;0.80;;;;;;;;;;4861940;29;20045;-86
2024/02/04 12:47:33;;;;;;;3.00;0.93;;;;;;;;;;4859750;29;20061;-89
2024/02/04 12:50:03;;;;;;;3.38;1.10;;;;;;;;;;4860298;29;20061;-88
2024/02/04 12:52:38;;;;;;;;;;;;;;;;;;4861890;29;20497;-87
2024/02/04 12:55:19;;;;;;;2.10;1.02;;;;;;;;;;4861295;29;19924;-88
2024/02/04 12:57:50;;;;;;;3.03;1.10;;;;;;;;;;4859924;29;20401;-87
2024/02/04 13:00:20;;;;;;;3.60;1.00;;;;;;;;;;4859585;29;20489;-87
2024/02/04 13:02:50;;;;;;;2.22;1.13;;;;;;;;;;4859324;29;20057;-85
2024/02/04 13:05:25;;;;;;;1.88;0.90;;;;;;;;;;4861043;29;20049;-85
2024/02/04 13:07:57;;;;;;;5.15;0.90;;;;;;;;;;4861060;29;20049;-83
2024/02/04 13:10:30;;;;;;;3.72;1.17;;;;;;;;;;4848218;29;20057;-84
2024/02/04 13:13:07;;;;;;;3.45;1.05;;;;;;;;;;4862068;29;20049;-84
2024/02/04 13:15:44;;;;;;;5.03;1.60;;;;;;;;;;4861061;29;20076;-86
2024/02/04 13:18:17;;;;;;;2.92;1.00;;;;;;;;;;4860162;29;20053;-83
2024/02/04 13:20:48;;;;;;;5.85;1.20;;;;;;;;;;4859748;29;20578;-87
2024/02/04 13:23:22;;;;;;;1.63;1.00;;;;;;;;;;4862774;29;20049;-90
2024/02/04 13:26:17;;;;;;;1.83;1.20;;;;;;;;;;4857503;29;20076;-87
2024/02/04 13:28:49;;;;;;;4.80;1.10;;;;;;;;;;4843231;29;20062;-85
2024/02/04 13:31:19;;;;;;;2.03;1.05;;;;;;;;;;4843325;29;20057;-87
2024/02/04 13:33:49;;;;;;;4.57;1.20;;;;;;;;;;4860859;29;20045;-85
2024/02/04 13:36:19;;;;;;;2.58;1.02;;;;;;;;;;4845997;29;20432;-86
2024/02/04 13:38:50;;;;;;;2.30;1.20;;;;;;;;;;4864095;29;20041;-87
2024/02/04 13:41:20;;;;;;;1.90;1.17;;;;;;;;;;4847120;29;20056;-87
2024/02/04 13:43:50;;;;;;;3.03;1.10;;;;;;;;;;4847513;29;20045;-87
2024/02/04 13:46:20;;;;;;;2.97;0.98;;;;;;;;;;4863854;29;20405;-87
2024/02/04 13:48:51;;;;;;;3.72;1.25;;;;;;;;;;4863405;29;20061;-85
2024/02/04 13:51:21;;;;;;;2.13;1.00;;;;;;;;;;4863241;29;20053;-86
2024/02/04 13:54:10;;;;;;;4.70;1.17;;;;;;;;;;4849745;29;20049;-86
2024/02/04 13:56:41;;;;;;;2.85;1.30;;;;;;;;;;4848271;29;20045;-86
2024/02/04 13:59:13;;;;;;;2.10;1.13;;;;;;;;;;4863171;29;20045;-85
2024/02/04 14:01:43;;;;;;;5.18;1.13;;;;;;;;;;4847124;29;20432;-88
2024/02/04 14:04:14;;;;;;;4.28;1.15;;;;;;;;;;4863205;29;20053;-86
2024/02/04 14:06:45;;;;;;;2.05;0.95;;;;;;;;;;4863590;29;20412;-87
2024/02/04 14:09:16;;;;;;;5.45;1.20;;;;;;;;;;4862531;29;20373;-88
2024/02/04 14:11:46;;;;;;;2.88;1.17;;;;;;;;;;4859797;29;20049;-87
2024/02/04 14:14:30;;;;;;;3.70;1.13;;;;;;;;;;4867720;29;20049;-82
2024/02/04 14:17:03;;;;;;;4.68;1.20;;;;;;;;;;4856787;29;20056;-89
2024/02/04 14:19:34;;;;;;;2.33;1.08;;;;;;;;;;4871491;29;20053;-85
2024/02/04 14:22:04;;;;;;;2.80;1.20;;;;;;;;;;4864681;29;20046;-84
2024/02/04 14:28:41;;;;;;;2.58;1.35;;;;;;;;;;4821180;29;20058;-88
2024/02/04 14:31:11;;;;;;;3.65;1.17;;;;;;;;;;4838285;29;20059;-87
2024/02/04 14:33:44;;;;;;;4.22;1.00;;;;;;;;;;4823059;29;20556;-88
2024/02/04 14:36:14;;;;;;;2.38;1.20;;;;;;;;;;4838378;29;20080;-86
2024/02/04 14:38:44;;;;;;;4.88;1.50;;;;;;;;;;4812505;29;20050;-86
2024/02/04 14:41:14;;;;;;;2.33;1.48;;;;;;;;;;4812227;29;20634;-89
2024/02/04 14:43:44;;;;;;;2.35;1.15;;;;;;;;;;4837757;29;20528;-86
2024/02/04 14:46:15;;;;;;;2.30;1.15;;;;;;;;;;4823331;29;20399;-86
2024/02/04 14:48:45;;;;;;;4.80;1.25;;;;;;;;;;4823284;29;20631;-88
2024/02/04 14:51:15;;;;;;;2.65;1.20;;;;;;;;;;4823224;29;20532;-85
2024/02/04 14:53:46;;;;;;;2.70;1.60;;;;;;;;;;4870484;29;20409;-88
2024/02/04 14:56:16;;;;;;;2.35;1.10;;;;;;;;;;4863693;29;20064;-88
2024/02/04 14:58:46;;;;;;;4.63;1.20;;;;;;;;;;4863113;29;20049;-88
2024/02/04 15:01:17;;;;;;;3.53;1.40;;;;;;;;;;4880523;29;20049;-84
2024/02/04 15:03:50;;;;;;;2.58;1.05;;;;;;;;;;4880508;29;20420;-88
2024/02/04 15:06:21;;;;;;;3.80;1.10;;;;;;;;;;4880444;29;20408;-84
2024/02/04 15:08:51;;;;;;;3.53;1.10;;;;;;;;;;4880796;29;20045;-87
2024/02/04 15:11:22;;;;;;;2.65;1.13;;;;;;;;;;4872247;29;20512;-87
2024/02/04 15:13:53;;;;;;;1.58;1.02;;;;;;;;;;4845393;29;20058;-88
2024/02/04 15:16:29;;;;;;;3.13;1.23;;;;;;;;;;4862443;29;20048;-86
2024/02/04 15:18:59;;;;;;;2.78;1.40;;;;;;;;;;4861312;29;20045;-86
2024/02/04 15:21:30;;;;;;;2.50;1.10;;;;;;;;;;4845446;29;20049;-86